Accueil
METAR-TAF:

METAR-TAF

Aéroports :

Aéroport international de Bergame-Orio al Serio (Le Caravage)

Bergame, Italie

latitude: 45-40N, longitude: 009-42E, altitude: 238 m

Observation

Le bulletin a été fait il y a 24 minutes, à 09:50 UTC
Vent 3 kt de sud, variant entre sud-est et sud/sud-ouest
Température 19°C
Humidité 68%
Pression 1024 hPa
Visibilité: 5000 m
brume

METAR: LIME 200950Z 17003KT 140V200 5000 BR NSC 19/13 Q1024 NOSIG

Heure: 12:14 (10:14 UTC)

Prévision

Le bulletin a été fait il y a 5 heures et 14 minutes, à 05:00 UTC
Prévision valable du 20 à 06 UTC au 21 à 06 UTC
Vent 5 kt de direction variable
Visibilité: 7000 m

TAF: LIME 200500Z 2006/2106 VRB05KT 7000 NSC

Observations et prévisions météorologiques de plus de 4000 aéroports (messages METAR et TAF).

Les stations disponibles sont représentées par des disques jaunes et rouges sur la carte.

Passer la souris dessus pour voir le nom de la station.

Cliquer dessus pour voir les observations et prévisions météorologiques.

Pour changer de carte: cliquez sur les boutons verts avec une croix noire pour zoomer, sur le bouton vert avec un tiret pour effectuer un zoom arrière, ou sur les flèches vertes pour les cartes adjacentes.


METAR-TAF: